Time;durP1;ratioP1;P1;durP2;ratioP2;P2;SDS_P1;SDS_P2;PMS_P1;PMS_P2;Temp;Humidity;BMP_temperature;BMP_pressure;BME280_temperature;BME280_humidity;BME280_pressure;Samples;Min_cycle;Max_cycle;Signal;HPM_P1;HPM_P2
2022/01/25 00:31:10;;;;;;;65.68;33.22;;;3.20;78.10;;;;;;5073314;28;20047;-73
2022/01/25 00:33:37;;;;;;;65.82;34.95;;;3.20;78.10;;;;;;5044298;28;20093;-73
2022/01/25 00:36:08;;;;;;;66.18;35.05;;;3.20;78.40;;;;;;5038663;28;20079;-73
2022/01/25 00:38:34;;;;;;;67.32;34.55;;;3.20;78.30;;;;;;5057508;28;20043;-73
2022/01/25 00:41:01;;;;;;;61.65;33.33;;;3.20;78.30;;;;;;5055038;28;20422;-73
2022/01/25 00:43:27;;;;;;;65.93;34.65;;;3.20;78.00;;;;;;5040924;28;20044;-73
2022/01/25 00:45:57;;;;;;;66.53;34.50;;;3.20;78.30;;;;;;5022356;28;20043;-73
2022/01/25 00:54:08;;;;;;;64.75;34.35;;;3.20;78.50;;;;;;5074709;28;20094;-73
2022/01/25 00:56:46;;;;;;;68.97;36.55;;;3.10;78.50;;;;;;5048929;28;20073;-73
2022/01/25 00:59:20;;;;;;;65.32;33.17;;;3.20;78.70;;;;;;5055579;28;20029;-73
2022/01/25 01:01:49;;;;;;;68.35;35.03;;;3.20;78.70;;;;;;5072356;28;20036;-73
2022/01/25 01:04:16;;;;;;;64.75;34.63;;;3.20;78.60;;;;;;5057649;28;20048;-73
2022/01/25 01:06:45;;;;;;;68.07;34.72;;;3.20;78.30;;;;;;5058000;28;20064;-73
2022/01/25 01:09:12;;;;;;;66.03;34.60;;;3.20;78.50;;;;;;5054074;28;20051;-73
2022/01/25 01:11:50;;;;;;;65.68;34.90;;;3.20;78.70;;;;;;5056671;28;20123;-72
2022/01/25 01:40:52;;;;;;;68.18;35.80;;;3.20;78.50;;;;;;5058860;28;20044;-73
2022/01/25 01:45:56;;;;;;;69.07;35.22;;;3.20;78.90;;;;;;5068725;28;20925;-73
2022/01/25 01:48:31;;;;;;;66.05;34.33;;;3.10;78.80;;;;;;5031030;28;20096;-73
2022/01/25 01:51:04;;;;;;;;;;;3.20;78.90;;;;;;5039590;28;20072;-73
2022/01/25 01:53:31;;;;;;;65.50;34.75;;;3.10;78.80;;;;;;5067764;28;19924;-73
2022/01/25 01:55:57;;;;;;;66.05;34.38;;;3.10;79.00;;;;;;5017955;28;20040;-73
2022/01/25 01:58:24;;;;;;;67.20;34.63;;;3.20;78.90;;;;;;5031559;28;20401;-73
2022/01/25 02:00:50;;;;;;;73.30;36.88;;;3.10;78.80;;;;;;5059402;28;20052;-73
2022/01/25 02:03:17;;;;;;;70.70;35.67;;;3.10;78.90;;;;;;5036735;28;20036;-73
2022/01/25 02:05:42;;;;;;;72.95;35.95;;;3.20;78.90;;;;;;5062344;28;20068;-73
2022/01/25 02:08:09;;;;;;;66.77;35.87;;;3.10;78.80;;;;;;5045040;28;20481;-73
2022/01/25 02:10:35;;;;;;;65.53;35.13;;;3.10;78.90;;;;;;5071885;28;20416;-73
2022/01/25 02:13:04;;;;;;;70.05;35.90;;;3.10;79.00;;;;;;5071477;28;20043;-73
2022/01/25 02:15:30;;;;;;;63.55;35.20;;;3.10;78.90;;;;;;5043612;28;20753;-74
2022/01/25 02:23:22;;;;;;;68.68;35.40;;;3.10;78.80;;;;;;5072206;28;20081;-73
2022/01/25 02:25:49;;;;;;;70.38;36.92;;;3.10;79.00;;;;;;5063220;28;20048;-73
2022/01/25 02:28:16;;;;;;;67.72;34.10;;;3.10;79.20;;;;;;5040607;28;20129;-73
2022/01/25 02:30:43;;;;;;;69.93;36.38;;;3.10;79.20;;;;;;5075621;28;20530;-73
2022/01/25 02:33:09;;;;;;;69.57;35.38;;;3.10;79.20;;;;;;5061481;28;20052;-73
2022/01/25 02:35:35;;;;;;;72.50;36.53;;;3.10;79.40;;;;;;5052023;28;20048;-73
2022/01/25 02:38:01;;;;;;;69.05;34.85;;;3.20;79.40;;;;;;5066429;28;20033;-73
2022/01/25 02:40:27;;;;;;;70.57;35.63;;;3.10;79.40;;;;;;5073279;28;20039;-73
2022/01/25 02:42:53;;;;;;;68.20;34.47;;;3.10;79.40;;;;;;5064434;28;20040;-73
2022/01/25 02:45:19;;;;;;;65.80;34.75;;;3.20;79.20;;;;;;5063593;28;20513;-73
2022/01/25 02:50:30;;;;;;;64.50;33.47;;;3.20;79.10;;;;;;5038768;28;20136;-73
2022/01/25 02:52:56;;;;;;;65.10;34.50;;;3.10;79.30;;;;;;5054858;28;20044;-73
2022/01/25 02:55:22;;;;;;;66.83;35.37;;;3.20;79.30;;;;;;5049687;28;20042;-73
2022/01/25 02:57:48;;;;;;;70.68;36.42;;;3.20;79.30;;;;;;5086017;28;20041;-73
2022/01/25 03:00:15;;;;;;;66.65;35.67;;;3.10;79.30;;;;;;5047494;28;20333;-73
2022/01/25 03:02:41;;;;;;;68.68;35.40;;;3.10;79.40;;;;;;5059603;28;20434;-73
2022/01/25 03:05:08;;;;;;;68.60;35.43;;;3.20;79.40;;;;;;5080837;28;20728;-73
2022/01/25 03:07:43;;;;;;;65.93;35.10;;;3.10;79.20;;;;;;5078475;28;20437;-73
2022/01/25 03:10:11;;;;;;;72.78;35.53;;;3.10;79.50;;;;;;5062715;28;20449;-73
2022/01/25 03:12:46;;;;;;;66.22;34.95;;;3.10;79.40;;;;;;5066843;28;20125;-73
2022/01/25 03:18:00;;;;;;;68.38;34.35;;;3.10;79.70;;;;;;5055273;28;19927;-73
2022/01/25 03:20:49;;;;;;;70.18;35.53;;;3.10;79.80;;;;;;5051236;28;20078;-73
2022/01/25 03:23:20;;;;;;;68.70;34.78;;;3.10;79.80;;;;;;5053727;28;20049;-73
2022/01/25 03:25:52;;;;;;;70.35;35.67;;;3.10;80.00;;;;;;5044569;28;20079;-73
2022/01/25 03:28:19;;;;;;;66.35;33.70;;;3.10;79.80;;;;;;5060805;28;20559;-73
2022/01/25 03:30:46;;;;;;;67.20;35.13;;;3.10;80.00;;;;;;5051401;28;20120;-73
2022/01/25 03:33:12;;;;;;;67.25;34.17;;;3.10;79.90;;;;;;5014431;28;20113;-73
2022/01/25 03:35:38;;;;;;;71.60;36.60;;;3.10;80.00;;;;;;5037411;28;20037;-73
2022/01/25 03:38:04;;;;;;;73.87;36.77;;;3.10;80.00;;;;;;5027099;28;20053;-74
2022/01/25 03:40:30;;;;;;;71.37;35.27;;;3.10;80.00;;;;;;5031855;28;20041;-73
2022/01/25 03:42:59;;;;;;;68.63;35.25;;;3.10;80.00;;;;;;5062912;28;20056;-73
2022/01/25 03:45:30;;;;;;;68.40;35.35;;;3.10;80.00;;;;;;5072242;28;20041;-73
2022/01/25 03:48:00;;;;;;;70.68;35.30;;;3.10;80.20;;;;;;5038206;28;20161;-73
2022/01/25 03:50:27;;;;;;;70.05;36.33;;;3.10;80.20;;;;;;5066944;28;20072;-73
2022/01/25 03:52:53;;;;;;;68.90;36.42;;;3.10;80.10;;;;;;5054516;28;20048;-74
2022/01/25 03:55:19;;;;;;;71.45;35.47;;;3.10;80.00;;;;;;5056475;28;20761;-73
2022/01/25 03:57:45;;;;;;;71.20;36.30;;;3.10;80.20;;;;;;5053574;28;20081;-73
2022/01/25 04:00:12;;;;;;;70.78;35.97;;;3.10;80.10;;;;;;5051515;28;20071;-73
2022/01/25 04:02:47;;;;;;;71.00;35.10;;;3.10;80.20;;;;;;5056133;28;20045;-73
2022/01/25 04:05:20;;;;;;;69.32;35.60;;;3.10;80.30;;;;;;5040451;28;20084;-73
2022/01/25 04:07:50;;;;;;;71.00;35.45;;;3.10;80.30;;;;;;5033983;28;20040;-73
2022/01/25 04:10:19;;;;;;;66.10;35.25;;;3.10;80.40;;;;;;5056348;28;20041;-73
2022/01/25 04:12:47;;;;;;;73.60;34.83;;;3.10;80.50;;;;;;5032883;28;20056;-73
2022/01/25 04:15:13;;;;;;;67.22;34.85;;;3.10;80.50;;;;;;5044261;28;20135;-73
2022/01/25 04:17:41;;;;;;;69.30;35.95;;;3.10;80.40;;;;;;5054687;28;20041;-73
2022/01/25 04:20:27;;;;;;;68.63;35.78;;;3.10;80.50;;;;;;5037782;28;20048;-73
2022/01/25 04:25:36;;;;;;;68.07;36.10;;;3.10;80.70;;;;;;5066130;28;20071;-73
2022/01/25 04:28:03;;;;;;;71.43;33.93;;;3.10;80.70;;;;;;5007340;28;20037;-74
2022/01/25 04:30:29;;;;;;;72.35;36.45;;;3.10;80.60;;;;;;5040884;28;20037;-73
2022/01/25 04:59:49;;;;;;;67.60;34.90;;;3.10;80.40;;;;;;5045350;28;20052;-73
2022/01/25 05:03:08;;;;;;;69.22;35.47;;;3.00;80.40;;;;;;5038422;28;20075;-73
2022/01/25 05:05:13;;;;;;;67.55;35.20;;;3.10;80.30;;;;;;5035551;28;20076;-73
2022/01/25 05:08:04;;;;;;;68.75;34.40;;;3.10;80.40;;;;;;5044438;28;20037;-73
2022/01/25 05:10:30;;;;;;;75.18;34.30;;;3.10;80.50;;;;;;5061686;28;20040;-73
2022/01/25 05:13:15;;;;;;;71.68;35.75;;;3.10;80.50;;;;;;5053653;28;20067;-73
2022/01/25 05:18:17;;;;;;;77.00;36.42;;;3.10;80.70;;;;;;5043106;28;20382;-73
2022/01/25 05:23:29;;;;;;;71.10;36.05;;;3.10;80.60;;;;;;5062463;28;20056;-73
2022/01/25 05:25:55;;;;;;;75.72;36.65;;;3.10;80.70;;;;;;5041954;28;20044;-73
2022/01/25 05:28:21;;;;;;;73.68;36.15;;;3.10;80.70;;;;;;5038255;28;20488;-73
2022/01/25 05:30:47;;;;;;;69.17;36.10;;;3.10;80.80;;;;;;5040775;28;20048;-73
2022/01/25 05:33:12;;;;;;;66.43;34.20;;;3.10;80.80;;;;;;5021236;28;20045;-73
2022/01/25 05:35:38;;;;;;;68.23;36.00;;;3.10;80.80;;;;;;5060147;28;20046;-73
2022/01/25 05:38:04;;;;;;;71.50;36.17;;;3.10;80.70;;;;;;5034936;28;20548;-73
2022/01/25 05:40:49;;;;;;;71.63;34.45;;;3.10;80.70;;;;;;5035448;28;20144;-73
2022/01/25 05:45:59;;;;;;;70.53;34.75;;;3.10;80.80;;;;;;5063509;28;20098;-73
2022/01/25 05:48:27;;;;;;;73.82;36.22;;;3.10;80.70;;;;;;5038349;28;20041;-73
2022/01/25 05:50:54;;;;;;;63.28;33.78;;;3.10;80.70;;;;;;5051355;28;20105;-73
2022/01/25 05:53:21;;;;;;;72.72;36.92;;;3.10;80.80;;;;;;5051902;28;20048;-73
2022/01/25 05:55:47;;;;;;;68.53;34.80;;;3.10;80.70;;;;;;5040756;28;20036;-73
2022/01/25 05:58:13;;;;;;;75.75;36.38;;;3.10;80.80;;;;;;5066752;28;20626;-73
2022/01/25 06:00:39;;;;;;;68.23;34.80;;;3.10;80.70;;;;;;5053554;28;20083;-73
2022/01/25 06:03:12;;;;;;;69.13;35.53;;;3.10;80.70;;;;;;5061116;28;20052;-73
2022/01/25 06:05:38;;;;;;;71.20;35.20;;;3.10;81.00;;;;;;5016769;28;20043;-73
2022/01/25 06:08:04;;;;;;;75.70;37.58;;;3.10;80.80;;;;;;5047623;28;20036;-73
2022/01/25 06:10:31;;;;;;;70.57;35.27;;;3.10;80.70;;;;;;5063244;28;20051;-73
2022/01/25 06:12:57;;;;;;;69.55;35.75;;;3.10;80.80;;;;;;5066558;28;20052;-73
2022/01/25 06:15:22;;;;;;;69.10;34.33;;;3.10;80.90;;;;;;5053370;28;20044;-73
2022/01/25 06:17:49;;;;;;;72.80;36.73;;;3.10;80.80;;;;;;5049778;28;20048;-73
2022/01/25 06:20:15;;;;;;;70.38;35.30;;;3.10;81.00;;;;;;5016071;28;20108;-73
2022/01/25 06:22:42;;;;;;;69.25;35.30;;;3.10;80.90;;;;;;5054809;28;20044;-73
2022/01/25 06:25:10;;;;;;;68.03;34.00;;;3.10;81.00;;;;;;5056077;28;20082;-73
2022/01/25 06:27:39;;;;;;;70.57;35.25;;;3.10;81.00;;;;;;5066694;28;20032;-73
2022/01/25 06:30:10;;;;;;;67.47;34.03;;;3.10;80.80;;;;;;5048844;28;20060;-73
2022/01/25 06:32:36;;;;;;;77.03;36.47;;;3.10;81.00;;;;;;5061118;28;20048;-73
2022/01/25 06:35:05;;;;;;;74.23;36.73;;;3.10;80.90;;;;;;5012316;28;20033;-73
2022/01/25 06:37:31;;;;;;;64.63;33.28;;;3.10;80.90;;;;;;5057260;28;20052;-73
2022/01/25 06:39:58;;;;;;;74.63;36.63;;;3.10;80.70;;;;;;5062957;28;20041;-73
2022/01/25 06:42:28;;;;;;;69.88;35.70;;;3.10;80.70;;;;;;5043597;28;20044;-74
2022/01/25 06:44:57;;;;;;;73.47;35.65;;;3.10;80.80;;;;;;5043917;28;20049;-74
2022/01/25 06:47:23;;;;;;;75.55;35.78;;;3.10;80.90;;;;;;5052146;28;20084;-74
2022/01/25 06:49:48;;;;;;;78.53;35.67;;;3.10;80.90;;;;;;5046946;28;20064;-73
2022/01/25 06:52:14;;;;;;;70.27;35.80;;;3.10;80.80;;;;;;5038285;28;20079;-73
2022/01/25 06:54:40;;;;;;;68.33;34.70;;;3.10;80.90;;;;;;5028125;28;20051;-74
2022/01/25 06:57:07;;;;;;;75.15;37.08;;;3.10;81.10;;;;;;5049156;28;20053;-73
2022/01/25 06:59:32;;;;;;;69.38;36.40;;;3.10;81.00;;;;;;5046624;28;20439;-73
2022/01/25 07:01:58;;;;;;;75.50;36.33;;;3.10;81.00;;;;;;5035048;28;20041;-73
2022/01/25 07:04:24;;;;;;;69.90;35.80;;;3.10;81.00;;;;;;5033019;28;20037;-73
2022/01/25 07:06:51;;;;;;;71.47;34.92;;;3.10;81.00;;;;;;5054137;28;20517;-73
2022/01/25 07:09:17;;;;;;;69.57;35.40;;;3.20;80.90;;;;;;5048971;28;20106;-73
2022/01/25 07:11:42;;;;;;;72.03;34.07;;;3.20;80.90;;;;;;5063615;28;20101;-72
2022/01/25 07:14:08;;;;;;;68.93;34.47;;;3.20;80.90;;;;;;5037652;28;20117;-73
2022/01/25 07:16:35;;;;;;;67.40;32.93;;;3.10;81.00;;;;;;5085156;28;20040;-73
2022/01/25 07:19:02;;;;;;;69.90;34.97;;;3.10;80.90;;;;;;5072953;28;20036;-74
2022/01/25 07:21:28;;;;;;;73.97;35.75;;;3.10;81.00;;;;;;5073753;28;20362;-73
2022/01/25 07:23:53;;;;;;;78.50;37.20;;;3.10;81.00;;;;;;5062144;28;20090;-73
2022/01/25 07:26:19;;;;;;;77.77;37.40;;;3.10;81.00;;;;;;5037503;28;20044;-73
2022/01/25 07:28:46;;;;;;;71.33;35.73;;;3.10;80.90;;;;;;5060454;28;20136;-74
2022/01/25 07:31:12;;;;;;;71.45;34.75;;;3.10;81.00;;;;;;5065509;28;20112;-73
2022/01/25 07:33:38;;;;;;;67.03;33.27;;;3.10;81.00;;;;;;5086424;28;20036;-73
2022/01/25 07:36:05;;;;;;;69.17;34.33;;;3.10;81.10;;;;;;5075615;28;20711;-72
2022/01/25 07:38:31;;;;;;;71.20;34.00;;;3.10;81.00;;;;;;5062034;28;20044;-73
2022/01/25 07:40:57;;;;;;;67.05;34.58;;;3.10;80.90;;;;;;5042518;28;20119;-73
2022/01/25 07:43:23;;;;;;;69.37;36.27;;;3.10;80.80;;;;;;5046831;28;20056;-73
2022/01/25 07:45:53;;;;;;;68.90;34.50;;;3.10;80.80;;;;;;5059297;28;20459;-73
2022/01/25 07:48:20;;;;;;;72.43;34.95;;;3.10;80.80;;;;;;5042490;28;20044;-73
2022/01/25 07:50:46;;;;;;;72.53;34.60;;;3.10;80.60;;;;;;5057702;28;20493;-73
2022/01/25 07:53:11;;;;;;;74.93;35.83;;;3.10;80.70;;;;;;5072027;28;20054;-73
2022/01/25 07:55:37;;;;;;;71.70;35.33;;;3.10;80.80;;;;;;5062708;28;20040;-73
2022/01/25 07:58:04;;;;;;;73.27;35.87;;;3.10;80.80;;;;;;5031692;28;20071;-74
2022/01/25 08:00:30;;;;;;;73.35;37.58;;;3.10;80.80;;;;;;5056141;28;20173;-73
2022/01/25 08:02:57;;;;;;;74.80;36.27;;;3.10;80.90;;;;;;5057964;28;20037;-73
2022/01/25 08:05:26;;;;;;;74.38;36.80;;;3.10;80.90;;;;;;5045377;28;20040;-73
2022/01/25 08:07:53;;;;;;;75.20;36.70;;;3.10;80.80;;;;;;5027643;28;20489;-73
2022/01/25 08:10:20;;;;;;;68.97;34.92;;;3.10;80.80;;;;;;5050714;28;20417;-73
2022/01/25 08:12:47;;;;;;;68.70;35.22;;;3.10;80.90;;;;;;5057346;28;20114;-73
2022/01/25 08:15:15;;;;;;;69.20;35.05;;;3.10;80.90;;;;;;5076533;28;20044;-73
2022/01/25 08:17:41;;;;;;;73.30;35.72;;;3.10;80.80;;;;;;5043978;28;20036;-73
2022/01/25 08:20:07;;;;;;;74.43;35.83;;;3.10;80.80;;;;;;5052174;28;20108;-73
2022/01/25 08:22:36;;;;;;;72.05;33.33;;;3.10;80.90;;;;;;5073202;28;20047;-74
2022/01/25 08:25:04;;;;;;;71.93;36.43;;;3.10;80.90;;;;;;5040475;28;20047;-74
2022/01/25 08:27:30;;;;;;;69.13;34.60;;;3.10;80.90;;;;;;5049062;28;20071;-74
2022/01/25 08:29:58;;;;;;;72.75;36.95;;;3.10;80.70;;;;;;5027719;28;20037;-73
2022/01/25 08:32:24;;;;;;;75.65;35.85;;;3.10;80.70;;;;;;5052793;28;20045;-73
2022/01/25 08:34:50;;;;;;;71.33;34.87;;;3.10;80.60;;;;;;5040267;28;20135;-73
2022/01/25 08:37:16;;;;;;;69.70;34.37;;;3.10;80.70;;;;;;5058788;28;20715;-73
2022/01/25 08:39:42;;;;;;;72.17;34.27;;;3.10;80.70;;;;;;5064592;28;20040;-73
2022/01/25 08:42:08;;;;;;;71.20;36.50;;;3.10;80.70;;;;;;5065115;28;20412;-73
2022/01/25 08:44:35;;;;;;;72.35;35.20;;;3.20;80.70;;;;;;5037962;28;20036;-73
2022/01/25 08:47:01;;;;;;;69.40;33.47;;;3.20;80.60;;;;;;5040425;28;20044;-73
2022/01/25 08:49:27;;;;;;;73.22;34.58;;;3.20;80.70;;;;;;5064467;28;20051;-73
2022/01/25 08:51:54;;;;;;;66.80;34.60;;;3.20;80.70;;;;;;5058746;28;20044;-73
2022/01/25 08:54:19;;;;;;;72.47;35.92;;;3.20;80.60;;;;;;5055058;28;20048;-73
2022/01/25 08:56:45;;;;;;;72.23;36.77;;;3.20;80.60;;;;;;5043456;28;20093;-73
2022/01/25 08:59:12;;;;;;;68.50;34.67;;;3.20;80.40;;;;;;5066924;28;20597;-73
2022/01/25 09:01:44;;;;;;;69.03;34.88;;;3.20;80.40;;;;;;5063351;28;20541;-73
2022/01/25 09:04:10;;;;;;;69.33;34.80;;;3.20;80.60;;;;;;5060803;28;20044;-73
2022/01/25 09:06:35;;;;;;;71.90;34.27;;;3.20;80.60;;;;;;5043231;28;20032;-73
2022/01/25 09:09:04;;;;;;;75.50;35.77;;;3.20;80.60;;;;;;5036189;28;20067;-73
2022/01/25 09:11:40;;;;;;;72.32;36.20;;;3.20;80.70;;;;;;5030814;28;20458;-73
2022/01/25 09:14:07;;;;;;;71.43;34.72;;;3.20;80.90;;;;;;5058412;28;20078;-73
2022/01/25 09:16:34;;;;;;;72.75;35.67;;;3.30;80.70;;;;;;5038391;28;20050;-73
2022/01/25 09:19:00;;;;;;;72.97;35.25;;;3.30;80.60;;;;;;5043916;28;20043;-73
2022/01/25 09:21:26;;;;;;;75.72;37.30;;;3.30;80.60;;;;;;5038314;28;20124;-73
2022/01/25 09:23:53;;;;;;;72.65;34.88;;;3.30;80.70;;;;;;5053515;28;20032;-73
2022/01/25 09:26:20;;;;;;;78.25;36.85;;;3.30;80.70;;;;;;5040338;28;20036;-73
2022/01/25 09:28:45;;;;;;;71.35;35.47;;;3.30;80.70;;;;;;5026563;28;20499;-73
2022/01/25 09:31:11;;;;;;;71.67;36.20;;;3.30;80.60;;;;;;5048011;28;20036;-73
2022/01/25 09:33:37;;;;;;;66.63;33.50;;;3.30;80.40;;;;;;5047258;28;20055;-73
2022/01/25 09:36:03;;;;;;;76.33;36.13;;;3.30;80.60;;;;;;5080900;28;20096;-73
2022/01/25 09:38:29;;;;;;;74.10;36.17;;;3.30;80.60;;;;;;5030606;28;20476;-73
2022/01/25 09:40:55;;;;;;;68.73;35.57;;;3.40;80.60;;;;;;5066189;28;20048;-73
2022/01/25 09:43:23;;;;;;;70.77;36.17;;;3.40;80.60;;;;;;5041408;28;20134;-73
2022/01/25 09:45:50;;;;;;;73.85;37.08;;;3.40;80.50;;;;;;5051019;28;20294;-73
2022/01/25 09:48:19;;;;;;;73.75;37.22;;;3.40;80.40;;;;;;5033637;28;20062;-73
2022/01/25 09:50:45;;;;;;;73.43;36.38;;;3.40;80.40;;;;;;5046759;28;20516;-73
2022/01/25 09:53:10;;;;;;;73.05;35.28;;;3.40;80.30;;;;;;5063756;28;20031;-73
2022/01/25 09:55:42;;;;;;;76.07;37.40;;;3.40;80.40;;;;;;5046751;28;20044;-73
2022/01/25 09:58:10;;;;;;;74.68;36.60;;;3.40;80.20;;;;;;5044298;28;20060;-73
2022/01/25 10:00:37;;;;;;;73.30;35.33;;;3.40;80.30;;;;;;5044364;28;20044;-73
2022/01/25 10:05:46;;;;;;;69.15;35.33;;;3.40;80.30;;;;;;5066011;28;20477;-73
2022/01/25 10:08:15;;;;;;;70.68;35.50;;;3.40;80.30;;;;;;5050086;28;20097;-73
2022/01/25 10:10:45;;;;;;;74.50;36.70;;;3.40;80.00;;;;;;5069367;28;20141;-73
2022/01/25 10:13:11;;;;;;;79.60;37.03;;;3.40;80.30;;;;;;5061206;28;20059;-73
2022/01/25 10:15:37;;;;;;;77.43;38.37;;;3.40;80.40;;;;;;5055808;28;20532;-73
2022/01/25 10:18:04;;;;;;;74.18;36.50;;;3.40;80.30;;;;;;5049848;28;20043;-73
2022/01/25 10:20:33;;;;;;;79.57;37.25;;;3.40;80.20;;;;;;5054078;28;20051;-73
2022/01/25 10:23:01;;;;;;;76.95;36.60;;;3.40;80.30;;;;;;5070707;28;20072;-72
2022/01/25 10:25:39;;;;;;;75.45;36.92;;;3.40;80.30;;;;;;5047032;28;20031;-73
2022/01/25 10:28:15;;;;;;;79.30;37.22;;;3.40;80.50;;;;;;5036862;28;20040;-73
2022/01/25 10:30:53;;;;;;;79.28;37.80;;;3.40;80.40;;;;;;5045449;28;20029;-73
2022/01/25 10:33:35;;;;;;;78.88;37.50;;;3.40;80.50;;;;;;5075478;28;20118;-73
2022/01/25 10:36:16;;;;;;;80.93;37.35;;;3.40;80.60;;;;;;5059680;28;20135;-73
2022/01/25 10:38:47;;;;;;;77.93;37.50;;;3.40;80.70;;;;;;5042154;28;20051;-73
2022/01/25 10:41:22;;;;;;;79.88;37.30;;;3.40;80.60;;;;;;5075641;28;20074;-73
2022/01/25 10:43:49;;;;;;;81.20;38.13;;;3.40;80.60;;;;;;5040315;28;20036;-73
2022/01/25 10:46:31;;;;;;;77.53;37.70;;;3.40;80.70;;;;;;5061187;28;20511;-73
2022/01/25 10:49:06;;;;;;;80.88;38.28;;;3.40;80.80;;;;;;5051520;28;20032;-73
2022/01/25 10:51:45;;;;;;;78.57;38.50;;;3.40;80.90;;;;;;5037760;28;20119;-73
2022/01/25 10:54:16;;;;;;;78.18;37.88;;;3.40;81.10;;;;;;5048734;28;20079;-73
2022/01/25 10:56:50;;;;;;;75.63;38.40;;;3.40;81.10;;;;;;5075189;28;20074;-73
2022/01/25 10:59:22;;;;;;;82.53;38.85;;;3.50;80.90;;;;;;5075467;28;20043;-73
2022/01/25 11:01:51;;;;;;;75.22;37.05;;;3.50;80.90;;;;;;5061106;28;20428;-73
2022/01/25 11:04:21;;;;;;;77.53;36.40;;;3.50;80.70;;;;;;5051418;28;20382;-73
2022/01/25 11:06:54;;;;;;;75.55;37.60;;;3.50;80.80;;;;;;5043578;28;20114;-73
2022/01/25 11:09:23;;;;;;;75.43;36.95;;;3.50;80.80;;;;;;5062245;28;20040;-73
2022/01/25 11:11:53;;;;;;;73.63;37.55;;;3.50;80.80;;;;;;5047553;28;20044;-73
2022/01/25 11:17:04;;;;;;;77.47;38.40;;;3.50;80.70;;;;;;5063464;28;20049;-74
2022/01/25 11:19:30;;;;;;;73.80;36.03;;;3.50;80.80;;;;;;5018491;28;20116;-74
2022/01/25 11:21:59;;;;;;;81.75;39.92;;;3.50;80.70;;;;;;5029972;28;20044;-73
2022/01/25 11:24:26;;;;;;;87.22;40.05;;;3.50;80.60;;;;;;5068555;28;20049;-73
2022/01/25 11:26:53;;;;;;;83.45;39.05;;;3.50;80.60;;;;;;5049866;28;20040;-73
2022/01/25 11:29:20;;;;;;;81.85;38.15;;;3.50;80.70;;;;;;5042042;28;20149;-73
2022/01/25 11:31:51;;;;;;;77.53;39.40;;;3.50;80.70;;;;;;5047401;28;20497;-73
2022/01/25 11:34:18;;;;;;;83.38;38.28;;;3.50;80.70;;;;;;5050434;28;20040;-73
2022/01/25 11:36:56;;;;;;;84.40;40.45;;;3.50;80.60;;;;;;5037980;28;20045;-74
2022/01/25 11:39:24;;;;;;;81.45;39.17;;;3.50;80.50;;;;;;5055400;28;20049;-73
2022/01/25 11:41:51;;;;;;;81.13;38.78;;;3.50;80.50;;;;;;5067073;28;20170;-73
2022/01/25 11:44:26;;;;;;;83.35;38.97;;;3.50;80.60;;;;;;5057894;28;20094;-73
2022/01/25 11:46:57;;;;;;;87.03;39.58;;;3.50;80.80;;;;;;5062491;28;20051;-73
2022/01/25 11:49:23;;;;;;;85.18;38.85;;;3.60;80.80;;;;;;5065792;28;20045;-73
2022/01/25 11:52:12;;;;;;;85.05;40.88;;;3.60;80.80;;;;;;5032605;28;20055;-73
2022/01/25 11:54:40;;;;;;;86.90;40.58;;;3.60;80.70;;;;;;5040456;28;20037;-73
2022/01/25 11:57:24;;;;;;;85.03;39.60;;;3.60;80.50;;;;;;5053117;28;20037;-73
2022/01/25 11:59:58;;;;;;;83.32;40.88;;;3.50;80.80;;;;;;5070672;28;20063;-74
2022/01/25 12:02:40;;;;;;;84.20;40.03;;;3.60;80.80;;;;;;5063867;28;20044;-73
2022/01/25 12:05:09;;;;;;;77.72;37.63;;;3.60;80.90;;;;;;5060687;28;20051;-73
2022/01/25 12:07:40;;;;;;;80.28;38.80;;;3.60;80.90;;;;;;5038664;28;20132;-73
2022/01/25 12:10:32;;;;;;;78.13;36.92;;;3.60;80.30;;;;;;5046907;28;20595;-73
2022/01/25 12:13:21;;;;;;;77.88;38.15;;;3.50;80.30;;;;;;5058797;28;20075;-73
2022/01/25 12:16:26;;;;;;;81.25;38.95;;;3.60;80.20;;;;;;5036766;28;20131;-73
2022/01/25 12:19:01;;;;;;;81.68;37.30;;;3.60;80.30;;;;;;5060042;28;20041;-73
2022/01/25 12:21:45;;;;;;;84.97;37.95;;;3.60;80.40;;;;;;5042557;28;20055;-73
2022/01/25 12:24:51;;;;;;;75.30;37.13;;;3.60;80.40;;;;;;5051164;28;20052;-73
2022/01/25 12:27:24;;;;;;;77.82;36.25;;;3.60;80.50;;;;;;5041462;28;20053;-73
2022/01/25 12:30:09;;;;;;;82.63;38.03;;;3.60;80.20;;;;;;5045228;28;20102;-73
2022/01/25 12:33:02;;;;;;;79.35;38.33;;;3.70;80.10;;;;;;5070088;28;20148;-73
2022/01/25 12:35:49;;;;;;;81.60;37.20;;;3.60;80.30;;;;;;5046513;28;20067;-73
2022/01/25 12:38:23;;;;;;;80.50;37.30;;;3.70;80.00;;;;;;5049014;28;20068;-73
2022/01/25 12:40:58;;;;;;;79.90;37.50;;;3.60;79.60;;;;;;5054686;28;20049;-73
2022/01/25 12:43:25;;;;;;;79.53;37.10;;;3.60;79.70;;;;;;5038615;28;20041;-73
2022/01/25 12:45:54;;;;;;;83.10;38.85;;;3.60;79.60;;;;;;5044747;28;20037;-73
2022/01/25 12:48:33;;;;;;;82.85;37.92;;;3.60;79.40;;;;;;5049306;28;20105;-73
2022/01/25 12:51:06;;;;;;;77.97;37.70;;;3.60;79.40;;;;;;5041209;28;20033;-73
2022/01/25 12:53:34;;;;;;;85.30;38.63;;;3.50;79.20;;;;;;5061011;28;20098;-73
2022/01/25 12:56:06;;;;;;;74.35;37.35;;;3.50;79.40;;;;;;5047202;28;20051;-73
2022/01/25 12:58:33;;;;;;;78.53;37.28;;;3.50;79.40;;;;;;5057067;28;20520;-73
2022/01/25 13:01:03;;;;;;;78.28;38.25;;;3.50;79.70;;;;;;5038201;28;20036;-72
2022/01/25 13:03:35;;;;;;;82.28;39.22;;;3.50;79.60;;;;;;5054104;28;20033;-72
2022/01/25 13:06:10;;;;;;;82.45;39.60;;;3.50;79.80;;;;;;5046448;28;20153;-73
2022/01/25 13:09:09;;;;;;;80.73;37.53;;;3.50;79.70;;;;;;5049676;28;20578;-73
2022/01/25 13:12:27;;;;;;;82.65;38.25;;;3.50;80.00;;;;;;5053697;28;20337;-73
2022/01/25 13:14:52;;;;;;;80.93;36.78;;;3.50;80.30;;;;;;5035653;28;20049;-73
2022/01/25 13:17:20;;;;;;;74.60;36.17;;;3.50;80.20;;;;;;5016406;28;20482;-73
2022/01/25 13:19:58;;;;;;;74.15;36.03;;;3.50;79.60;;;;;;5018260;28;20490;-72
2022/01/25 13:22:39;;;;;;;76.18;36.15;;;3.50;79.80;;;;;;5016044;28;20513;-72
2022/01/25 13:25:27;;;;;;;75.72;36.78;;;3.50;79.80;;;;;;5027407;28;20160;-72
2022/01/25 13:27:58;;;;;;;83.32;37.35;;;3.50;79.80;;;;;;5033547;28;20116;-75
2022/01/25 13:30:45;;;;;;;77.28;36.25;;;3.50;79.70;;;;;;5015701;28;20490;-73
2022/01/25 13:33:20;;;;;;;84.15;38.08;;;3.50;79.80;;;;;;5012997;28;20045;-73
2022/01/25 13:35:53;;;;;;;86.97;38.30;;;3.50;80.00;;;;;;5019123;28;20046;-73
2022/01/25 13:38:20;;;;;;;82.15;37.92;;;3.50;79.90;;;;;;5025272;28;20078;-73
2022/01/25 13:46:32;;;;;;;82.07;37.70;;;3.40;79.90;;;;;;5032762;28;20080;-73
2022/01/25 13:49:20;;;;;;;80.55;38.00;;;3.40;79.80;;;;;;5016291;28;20047;-73
2022/01/25 13:51:52;;;;;;;83.13;38.05;;;3.40;79.80;;;;;;5010878;28;20120;-73
2022/01/25 13:54:23;;;;;;;75.47;36.42;;;3.40;79.80;;;;;;5054763;28;20466;-72
2022/01/25 13:56:51;;;;;;;76.53;35.50;;;3.40;79.90;;;;;;5037771;28;20041;-72
2022/01/25 13:59:17;;;;;;;83.35;37.25;;;3.40;80.00;;;;;;5032636;28;20049;-72
2022/01/25 14:01:43;;;;;;;73.45;34.90;;;3.40;79.80;;;;;;5010909;28;20099;-72
2022/01/25 14:04:21;;;;;;;78.03;36.80;;;3.30;79.90;;;;;;5020690;28;20394;-72
2022/01/25 14:06:55;;;;;;;79.47;36.72;;;3.30;80.10;;;;;;5014620;28;20604;-72
2022/01/25 14:09:32;;;;;;;79.30;35.92;;;3.30;80.20;;;;;;5017073;28;20118;-72
2022/01/25 14:25:47;;;;;;;79.93;34.45;;;3.20;80.30;;;;;;5051406;28;20007;-72
2022/01/25 14:28:25;;;;;;;79.10;36.55;;;3.20;80.70;;;;;;5038859;28;20086;-72
2022/01/25 14:30:53;;;;;;;85.18;36.97;;;3.20;80.90;;;;;;5061784;28;20110;-73
2022/01/25 14:33:26;;;;;;;83.78;37.55;;;3.20;81.20;;;;;;5038857;28;20048;-73
2022/01/25 14:36:00;;;;;;;86.30;38.55;;;3.20;81.30;;;;;;5069848;28;20481;-73
2022/01/25 14:38:28;;;;;;;84.75;36.67;;;3.20;81.30;;;;;;5052914;28;20040;-73
2022/01/25 14:41:15;;;;;;;81.55;36.03;;;3.20;81.20;;;;;;5041667;28;20063;-73
2022/01/25 14:43:48;;;;;;;86.00;39.08;;;3.10;81.30;;;;;;5041642;28;20048;-72
2022/01/25 14:46:22;;;;;;;81.28;37.05;;;3.10;81.20;;;;;;5067580;28;20102;-72
2022/01/25 14:49:16;;;;;;;89.22;37.83;;;3.10;81.10;;;;;;5039146;28;20076;-72
2022/01/25 14:51:58;;;;;;;88.93;38.83;;;3.10;81.30;;;;;;5047121;28;20105;-72
2022/01/25 14:54:42;;;;;;;95.75;38.95;;;3.00;81.50;;;;;;5070077;28;20062;-73
2022/01/25 14:57:14;;;;;;;95.82;37.47;;;3.10;81.80;;;;;;5042683;28;20048;-72
2022/01/25 14:59:46;;;;;;;90.45;38.22;;;3.10;81.80;;;;;;5070141;28;20033;-72
2022/01/25 15:02:22;;;;;;;88.65;38.35;;;3.10;82.00;;;;;;5050260;28;20045;-72
2022/01/25 15:04:54;;;;;;;93.37;39.30;;;3.10;82.00;;;;;;5062615;28;20131;-72
2022/01/25 15:07:25;;;;;;;93.40;38.38;;;3.10;81.90;;;;;;5066887;28;20080;-72
2022/01/25 15:10:02;;;;;;;91.18;37.83;;;3.10;82.10;;;;;;5061390;28;20041;-72
2022/01/25 15:12:38;;;;;;;93.93;38.42;;;3.00;81.90;;;;;;5059251;28;20060;-72